Terminal Aerodrome Forecast
Issued by NWS Hastings, NE

Home | Current Version | Previous Version | Text Only | Print | Product List | Glossary On
Versions: 1 2 3 4 5 6 7 8 9 10 11 12 13 14 15 16 17 18 19 20 21 22 23 24 25 26
000
FTUS43 KGID 212320
TAFGRI
TAF
KGRI 212320Z 2200/2224 16012KT P6SM FEW080 SCT120 BKN250
     FM220200 02011KT P6SM VCTS SCT060CB BKN120 BKN250
     FM220600 34012G20KT P6SM VCSH SCT030 OVC180
     FM220900 32014G25KT P6SM VCSH OVC013
     FM221700 34017G24KT P6SM OVC021=

USA.gov is the U.S. government's official web portal to all federal, state and local government web resources and services.